createdAt,value
2023-08-29T00:02:47.769Z,-4.2280127
2023-08-29T00:04:48.826Z,-4.1440656
2023-08-29T00:06:49.904Z,-3.948727399999999
2023-08-29T00:08:51.002Z,-3.9906975999999994
2023-08-29T00:10:52.088Z,-4.0649586
2023-08-29T00:12:53.186Z,-4.0294419
2023-08-29T00:14:54.256Z,-3.7356302
2023-08-29T00:16:55.333Z,-3.1205565999999996
2023-08-29T00:18:56.423Z,-2.7928435
2023-08-29T00:20:57.527Z,-2.6975967
2023-08-29T00:22:58.599Z,-2.6233394
2023-08-29T00:24:59.687Z,-2.8283648
2023-08-29T00:27:00.762Z,-3.3272031000000006
2023-08-29T00:29:01.864Z,-3.5822707
2023-08-29T00:31:02.950Z,-3.6032579
2023-08-29T00:33:04.051Z,-3.7808368999999997
2023-08-29T00:35:05.112Z,-3.8938388
2023-08-29T00:37:06.189Z,-3.8228085999999997
2023-08-29T00:39:07.271Z,-3.9648744000000002
2023-08-29T00:41:08.363Z,-3.9971627000000005
2023-08-29T00:43:09.453Z,-3.8583264000000006
2023-08-29T00:45:10.541Z,-3.7695397999999996
2023-08-29T00:47:11.626Z,-3.9325869000000004
2023-08-29T00:49:12.690Z,-3.8034351
2023-08-29T00:51:13.788Z,-3.7582314000000006
2023-08-29T00:53:14.864Z,-3.8825376
2023-08-29T00:55:15.955Z,-3.9309653000000004
2023-08-29T00:57:17.052Z,-3.8744623
2023-08-29T00:59:18.135Z,-3.9616382000000003
2023-08-29T01:01:19.241Z,-3.9890827999999994
2023-08-29T01:03:20.342Z,-3.8066625000000003
2023-08-29T01:05:21.401Z,-3.7953647000000004
2023-08-29T01:07:22.478Z,-3.8357240000000004
2023-08-29T01:09:23.549Z,-3.7081910999999996
2023-08-29T01:11:24.643Z,-3.6726761000000003
2023-08-29T01:13:25.731Z,-3.8583253999999996
2023-08-29T01:15:26.819Z,-3.9115960000000003
2023-08-29T01:17:27.919Z,-3.863164499999999
2023-08-29T01:19:28.997Z,-3.9196660000000003
2023-08-29T01:21:30.065Z,-3.9471077
2023-08-29T01:23:31.155Z,-3.8324865000000004
2023-08-29T01:25:32.253Z,-3.7792141999999997
2023-08-29T01:27:33.337Z,-3.7436991999999996
2023-08-29T01:29:34.422Z,-3.6758971000000003
2023-08-29T01:31:35.517Z,-3.5645097999999997
2023-08-29T01:33:36.595Z,-3.4983233999999994
2023-08-29T01:35:37.673Z,-3.4305231999999997
2023-08-29T01:37:38.753Z,-3.3659510000000004
2023-08-29T01:39:39.861Z,-3.328821
2023-08-29T01:41:40.914Z,-3.3788644
2023-08-29T01:43:42.002Z,-3.3691787
2023-08-29T01:45:43.148Z,-3.4337512000000006
2023-08-29T01:47:44.230Z,-3.5209241000000007
2023-08-29T01:49:45.276Z,-3.5661254
2023-08-29T01:51:46.365Z,-3.5758125
2023-08-29T01:53:47.443Z,-3.795366799999999
2023-08-29T01:55:48.542Z,-3.9519605999999996
2023-08-29T01:57:49.610Z,-4.0052335
2023-08-29T01:59:50.694Z,-4.119851
2023-08-29T02:01:51.809Z,-4.1779668
2023-08-29T02:03:52.903Z,-4.1295324
2023-08-29T02:05:53.978Z,-4.0052256999999996
2023-08-29T02:07:55.034Z,-4.0940171
2023-08-29T02:09:56.109Z,-3.845408
2023-08-29T02:11:57.214Z,-3.6985048000000007
2023-08-29T02:13:58.288Z,-3.6565310999999996
2023-08-29T02:15:59.374Z,-3.7130322
2023-08-29T02:18:00.501Z,-3.6484558
2023-08-29T02:20:01.568Z,-3.8082767000000004
2023-08-29T02:22:02.657Z,-3.930963899999999
2023-08-29T02:24:03.743Z,-3.9051346000000002
2023-08-29T02:26:04.816Z,-3.7695309000000004
2023-08-29T02:28:06.012Z,-3.6629853
2023-08-29T02:30:06.969Z,-3.6597574
2023-08-29T02:32:08.063Z,-3.6258594000000004
2023-08-29T02:34:09.163Z,-3.519314
2023-08-29T02:36:10.235Z,-3.5968018
2023-08-29T02:38:11.425Z,-3.6290888000000003
2023-08-29T02:40:12.405Z,-3.6468458
2023-08-29T02:42:13.497Z,-3.5225395000000006
2023-08-29T02:44:14.582Z,-3.5015531
2023-08-29T02:46:15.684Z,-3.4595797999999993
2023-08-29T02:48:16.751Z,-3.2497136999999996
2023-08-29T02:50:17.832Z,-3.1673817
2023-08-29T02:52:18.930Z,-3.2254990999999995
2023-08-29T02:54:20.012Z,-3.2464861
2023-08-29T02:56:21.130Z,-3.2707010000000003
2023-08-29T02:58:22.190Z,-3.388548
2023-08-29T03:00:23.265Z,-3.4773377000000005
2023-08-29T03:02:24.341Z,-3.4724954999999995
2023-08-29T03:05:25.980Z,-3.5483666
2023-08-29T03:07:27.074Z,-3.5935663000000004
2023-08-29T03:09:28.148Z,-3.5758093000000004
2023-08-29T03:11:29.220Z,-3.5887255
2023-08-29T03:13:30.308Z,-3.548368
2023-08-29T03:15:31.402Z,-3.4821826000000002
2023-08-29T03:19:33.659Z,-3.4337542999999995
2023-08-29T03:21:34.682Z,-3.4224544999999997
2023-08-29T03:23:35.747Z,-3.5257695
2023-08-29T03:25:36.834Z,-3.5548268
2023-08-29T03:27:37.910Z,-3.5628971999999997
2023-08-29T03:29:38.985Z,-3.5273809
2023-08-29T03:31:40.078Z,-3.4547376
2023-08-29T03:33:41.363Z,-3.4127654
2023-08-29T03:35:42.262Z,-3.3998502000000004
2023-08-29T03:37:43.351Z,-3.3869363
2023-08-29T03:39:44.421Z,-3.4498951999999994
2023-08-29T03:41:45.522Z,-3.5467524999999993
2023-08-29T03:43:46.599Z,-3.5322235999999996
2023-08-29T03:45:47.696Z,-3.4821793
2023-08-29T03:47:48.810Z,-3.4256770000000003
2023-08-29T03:49:49.851Z,-3.3126736
2023-08-29T03:51:50.937Z,-3.2287311
2023-08-29T03:53:52.027Z,-3.2965325
2023-08-29T03:55:53.116Z,-3.3885493
2023-08-29T03:57:54.208Z,-3.4466664000000002
2023-08-29T03:59:55.302Z,-3.5677422000000005
2023-08-29T04:01:56.381Z,-3.6759012000000006
2023-08-29T04:03:57.692Z,-3.6791305999999997
2023-08-29T04:05:58.532Z,-3.6936590000000002
2023-08-29T04:07:59.618Z,-3.7646873999999997
2023-08-29T04:10:00.721Z,-3.7388579
2023-08-29T04:12:01.799Z,-3.6694416000000003
2023-08-29T04:14:02.894Z,-3.5628971
2023-08-29T04:16:04.082Z,-3.4482802999999995
2023-08-29T04:18:05.286Z,-3.4014654000000006
2023-08-29T04:20:06.150Z,-3.3966228000000003
2023-08-29T04:22:07.217Z,-3.3142921000000003
2023-08-29T04:24:08.317Z,-3.3142916
2023-08-29T04:26:09.411Z,-3.3643370000000004
2023-08-29T04:28:10.476Z,-3.3126790999999995
2023-08-29T04:30:11.575Z,-3.3078347999999997
2023-08-29T04:32:12.674Z,-3.3578797000000002
2023-08-29T04:34:13.770Z,-3.3046060999999995
2023-08-29T04:36:14.835Z,-3.2852335999999993
2023-08-29T04:38:15.899Z,-3.3837074
2023-08-29T04:40:16.980Z,-3.4111511
2023-08-29T04:42:18.074Z,-3.4224505
2023-08-29T04:44:19.167Z,-3.4579658
2023-08-29T04:46:20.262Z,-3.4773366
2023-08-29T04:48:21.352Z,-3.5386816999999993
2023-08-29T04:50:22.416Z,-3.5709682999999997
2023-08-29T04:52:23.504Z,-3.6419993000000006
2023-08-29T04:54:25.981Z,-3.7194863000000007
2023-08-29T04:56:25.691Z,-3.7630749999999997
2023-08-29T04:58:26.772Z,-3.6936580000000006
2023-08-29T05:00:27.853Z,-3.6839717000000007
2023-08-29T05:02:28.925Z,-3.750159
2023-08-29T05:04:30.012Z,-3.8228047
2023-08-29T05:06:31.096Z,-3.9115919
2023-08-29T05:08:32.181Z,-3.9826229999999994
2023-08-29T05:10:33.267Z,-3.9923092
2023-08-29T05:12:34.353Z,-3.9358058999999996
2023-08-29T05:14:35.435Z,-3.9115902
2023-08-29T05:16:36.537Z,-3.8098878
2023-08-29T05:18:37.619Z,-3.7340139999999997
2023-08-29T05:20:38.695Z,-3.7646857
2023-08-29T05:23:40.339Z,-3.7582283000000003
2023-08-29T05:25:41.412Z,-3.8163458000000006
2023-08-29T05:27:42.505Z,-3.895446400000001
2023-08-29T05:29:43.585Z,-4.0036074
2023-08-29T05:31:44.741Z,-3.9955362
2023-08-29T05:33:45.767Z,-4.131146299999999
2023-08-29T05:35:46.852Z,-4.1989535
2023-08-29T05:37:47.934Z,-4.2538432
2023-08-29T05:39:49.057Z,-4.2473861
2023-08-29T05:41:50.091Z,-4.341019600000001
2023-08-29T05:43:51.171Z,-4.413666899999999
2023-08-29T05:45:53.632Z,-4.701024599999999
2023-08-29T05:47:53.365Z,-4.7042527
2023-08-29T05:49:54.459Z,-4.6977965
2023-08-29T05:51:55.523Z,-4.6800382
2023-08-29T05:53:56.599Z,-4.4798541
2023-08-29T05:55:57.704Z,-4.1537484
2023-08-29T05:57:58.777Z,-4.2586878
2023-08-29T05:59:59.887Z,-4.3652389
2023-08-29T06:02:00.967Z,-4.484708299999999
2023-08-29T06:04:02.056Z,-4.6558362
2023-08-29T06:06:03.128Z,-4.644535899999999
2023-08-29T06:08:13.252Z,-4.6090173000000005
2023-08-29T06:10:05.311Z,-4.55574
2023-08-29T06:12:06.381Z,-4.4298144
2023-08-29T06:14:07.474Z,-4.310347599999999
2023-08-29T06:16:08.696Z,-4.3135737
2023-08-29T06:18:10.107Z,-4.3716923
2023-08-29T06:20:10.710Z,-4.360391000000001
2023-08-29T06:22:13.782Z,-4.4152818
2023-08-29T06:24:12.904Z,-4.3668508
2023-08-29T06:26:13.976Z,-4.2586882
2023-08-29T06:28:15.071Z,-4.1666676
2023-08-29T06:30:16.150Z,-4.2102577
2023-08-29T06:32:17.223Z,-4.253847599999999
2023-08-29T06:34:18.323Z,-4.3458659
2023-08-29T06:36:19.401Z,-4.4346553
2023-08-29T06:38:20.484Z,-4.470174500000001
2023-08-29T06:40:21.588Z,-4.4621025
2023-08-29T06:42:22.673Z,-4.386224400000001
2023-08-29T06:44:23.744Z,-4.462102400000001
2023-08-29T06:46:24.871Z,-4.5734971
2023-08-29T06:48:25.912Z,-4.6994197
2023-08-29T06:50:27.011Z,-4.838254699999999
2023-08-29T06:52:28.093Z,-5.0077654
2023-08-29T06:54:30.864Z,-4.9803219
2023-08-29T06:56:30.268Z,-4.9351185
2023-08-29T06:58:31.341Z,-4.9157440999999995
2023-08-29T07:00:32.413Z,-4.7752932999999995
2023-08-29T07:02:33.550Z,-4.825338499999999
2023-08-29T07:04:34.619Z,-4.8931397
2023-08-29T07:06:35.689Z,-4.8608542
2023-08-29T07:08:36.768Z,-4.8011225
2023-08-29T07:10:37.864Z,-4.7478473999999995
2023-08-29T07:12:38.939Z,-4.550892500000001
2023-08-29T07:14:40.039Z,-4.4766332
2023-08-29T07:16:41.155Z,-4.555736
2023-08-29T07:18:42.439Z,-4.6154696
2023-08-29T07:20:43.301Z,-4.7058788
2023-08-29T07:22:44.385Z,-4.7753003
2023-08-29T07:24:45.462Z,-4.8834614
2023-08-29T07:26:46.536Z,-4.830188199999999
2023-08-29T07:28:47.627Z,-4.7817566
2023-08-29T07:30:48.747Z,-4.7397798
2023-08-29T07:32:49.815Z,-4.8479396
2023-08-29T07:34:50.877Z,-4.8673142
2023-08-29T07:37:52.519Z,-4.8770023
2023-08-29T07:39:53.624Z,-5.0271358
2023-08-29T07:41:54.697Z,-5.270905399999999
2023-08-29T07:43:55.776Z,-5.1788893
2023-08-29T07:45:56.866Z,-5.099785799999999
2023-08-29T07:47:57.951Z,-5.0465071
2023-08-29T07:49:59.028Z,-4.7769062
2023-08-29T07:52:00.130Z,-4.5234503
2023-08-29T07:54:01.205Z,-4.5347504
2023-08-29T07:56:02.284Z,-4.5508956
2023-08-29T07:58:03.462Z,-4.6703599
2023-08-29T08:00:04.447Z,-4.8431022
2023-08-29T08:02:05.544Z,-4.9980831
2023-08-29T08:04:06.667Z,-4.962565399999999
2023-08-29T08:06:07.726Z,-4.917361999999999
2023-08-29T08:08:09.077Z,-4.9561060999999995
2023-08-29T08:10:09.902Z,-4.960948400000001
2023-08-29T08:12:10.970Z,-4.9076751
2023-08-29T08:14:12.052Z,-4.9964658
2023-08-29T08:16:13.178Z,-5.0045375
2023-08-29T08:18:14.234Z,-4.964178899999999
2023-08-29T08:20:15.302Z,-5.0222956
2023-08-29T08:22:16.406Z,-5.1094722
2023-08-29T08:24:17.475Z,-5.1724339
2023-08-29T08:26:18.580Z,-5.2353915
2023-08-29T08:28:19.653Z,-5.2337775
2023-08-29T08:30:20.735Z,-5.2983543
2023-08-29T08:32:21.873Z,-5.416202500000001
2023-08-29T08:34:23.015Z,-5.3709986
2023-08-29T08:36:24.011Z,-5.4049016
2023-08-29T08:38:25.097Z,-5.393602899999999
2023-08-29T08:41:26.706Z,-5.299968
2023-08-29T08:43:27.786Z,-5.2031063
2023-08-29T08:45:28.885Z,-5.382302399999999
2023-08-29T08:47:30.031Z,-5.5388964
2023-08-29T08:49:31.157Z,-5.666432
2023-08-29T08:51:32.130Z,-5.7988084
2023-08-29T08:53:33.224Z,-5.7342321
2023-08-29T08:55:34.304Z,-5.5614927000000005
2023-08-29T08:57:35.417Z,-5.4404143
2023-08-29T08:59:36.480Z,-5.421041799999999
2023-08-29T09:01:37.614Z,-5.374226900000001
2023-08-29T09:03:38.671Z,-5.479160800000001
2023-08-29T09:05:39.738Z,-5.614772
2023-08-29T09:07:40.967Z,-5.6535189
2023-08-29T09:09:41.902Z,-5.6632048
2023-08-29T09:11:42.980Z,-5.719709100000001
2023-08-29T09:13:44.073Z,-5.8746896
2023-08-29T09:15:45.177Z,-5.8617724
2023-08-29T09:17:46.287Z,-5.845626599999999
2023-08-29T09:19:47.338Z,-5.8440103
2023-08-29T09:21:48.426Z,-5.8343249
2023-08-29T09:23:49.505Z,-5.651902699999999
2023-08-29T09:25:50.580Z,-5.658362
2023-08-29T09:27:51.674Z,-5.6858086
2023-08-29T09:29:52.770Z,-5.672893799999999
2023-08-29T09:31:53.847Z,-5.7568410000000005
2023-08-29T09:33:54.940Z,-5.8650025999999995
2023-08-29T09:35:56.025Z,-5.8746898000000005
2023-08-29T09:37:57.105Z,-5.9424922
2023-08-29T09:39:58.192Z,-6.084556900000001
2023-08-29T09:41:59.278Z,-6.145899599999999
2023-08-29T09:44:00.352Z,-6.126526699999999
2023-08-29T09:46:01.459Z,-6.1911006
2023-08-29T09:48:02.587Z,-6.3493062
2023-08-29T09:50:03.674Z,-6.557556899999999
2023-08-29T09:52:04.706Z,-6.710922399999999
2023-08-29T09:54:05.796Z,-6.8675162
2023-08-29T09:56:06.879Z,-7.0128080000000015
2023-08-29T09:58:08.269Z,-7.053166500000001
2023-08-29T10:00:09.046Z,-7.0402514
2023-08-29T10:02:10.155Z,-6.970833000000001
2023-08-29T10:04:11.206Z,-6.998276899999999
2023-08-29T10:06:12.290Z,-6.898187699999999
2023-08-29T10:08:13.382Z,-6.8965733
2023-08-29T10:10:14.501Z,-6.8691305
2023-08-29T10:12:15.565Z,-6.8626735
2023-08-29T10:14:16.660Z,-6.915945600000001
2023-08-29T10:16:17.732Z,-7.082223400000001
2023-08-29T10:18:18.832Z,-7.2485045
2023-08-29T10:20:19.906Z,-7.3050077999999985
2023-08-29T10:22:20.973Z,-7.592366800000001
2023-08-29T10:24:22.103Z,-7.7199045
2023-08-29T10:26:24.290Z,-7.8829589
2023-08-29T10:28:24.268Z,-7.9749769
2023-08-29T10:30:25.317Z,-8.1202708
2023-08-29T10:32:27.683Z,-7.949144299999999
2023-08-29T10:34:27.497Z,-7.9442991
2023-08-29T10:36:28.587Z,-7.8329014
2023-08-29T10:38:29.677Z,-7.816754899999999
2023-08-29T10:40:30.755Z,-7.794152399999999
2023-08-29T10:42:31.841Z,-7.986265699999999
2023-08-29T10:44:32.933Z,-8.0250124
2023-08-29T10:46:34.028Z,-8.052461000000001
2023-08-29T10:48:35.109Z,-8.0718359
2023-08-29T10:50:36.181Z,-8.1396425
2023-08-29T10:52:37.293Z,-8.102510200000001
2023-08-29T10:54:38.346Z,-7.928156499999998
2023-08-29T10:56:39.542Z,-7.8700380999999995
2023-08-29T10:58:40.625Z,-7.695686800000002
2023-08-29T11:00:41.648Z,-7.6617828
2023-08-29T11:02:42.694Z,-7.6068934000000015
2023-08-29T11:04:55.714Z,-7.7973916
2023-08-29T11:06:44.873Z,-7.892640499999999
2023-08-29T11:08:45.942Z,-8.0928221
2023-08-29T11:10:47.036Z,-8.0508484
2023-08-29T11:12:48.114Z,-7.9701321000000025
2023-08-29T11:14:49.211Z,-8.0363214
2023-08-29T11:16:50.312Z,-8.0815256
2023-08-29T11:18:51.376Z,-8.1041288
2023-08-29T11:20:52.464Z,-8.180006199999998
2023-08-29T11:22:53.553Z,-8.3705032
2023-08-29T11:24:54.637Z,-8.4334653
2023-08-29T11:26:55.721Z,-8.5238705
2023-08-29T11:28:56.802Z,-8.6062038
2023-08-29T11:30:57.918Z,-8.9145487
2023-08-29T11:32:58.994Z,-9.130875300000001
2023-08-29T11:35:00.096Z,-9.248723800000002
2023-08-29T11:37:01.141Z,-9.539309300000001
2023-08-29T11:39:02.250Z,-9.8928559
2023-08-29T11:41:05.926Z,-10.136625200000001
2023-08-29T11:43:08.621Z,-10.2964483
2023-08-29T11:45:21.996Z,-10.3739341
2023-08-29T11:47:06.587Z,-10.427208799999999
2023-08-29T11:49:07.692Z,-10.533757600000001
2023-08-29T11:51:09.490Z,-10.569275800000002
2023-08-29T11:53:09.848Z,-10.625778300000002
2023-08-29T11:55:10.943Z,-10.772688800000001
2023-08-29T11:57:12.011Z,-10.832420299999999
2023-08-29T11:59:13.087Z,-10.9099088
2023-08-29T12:01:14.199Z,-11.005153599999998
2023-08-29T12:03:15.256Z,-11.105242299999997
2023-08-29T12:05:16.346Z,-11.4087434
2023-08-29T12:07:17.416Z,-11.7978062
2023-08-29T12:09:18.522Z,-12.0351186
2023-08-29T12:11:19.603Z,-12.1965552
2023-08-29T12:13:20.692Z,-12.343463199999999
2023-08-29T12:15:30.989Z,-12.299874899999999
2023-08-29T12:17:22.854Z,-12.1965545
2023-08-29T12:19:23.952Z,-12.204626300000001
2023-08-29T12:21:25.239Z,-12.3757506
2023-08-29T12:23:26.134Z,-12.4532409
2023-08-29T12:25:27.203Z,-12.5936919
2023-08-29T12:27:28.276Z,-12.8245483
2023-08-29T12:29:29.368Z,-13.0150452
2023-08-29T12:31:30.451Z,-13.0731628
2023-08-29T12:33:31.537Z,-13.268502799999998
2023-08-29T12:35:32.632Z,-13.368594400000001
2023-08-29T12:37:33.700Z,-13.4202541
2023-08-29T12:39:34.806Z,-13.6188199
2023-08-29T12:41:35.898Z,-13.8383756
2023-08-29T12:43:37.005Z,-13.9820552
2023-08-29T12:45:48.855Z,-14.196766599999998
2023-08-29T12:47:39.166Z,-14.361432099999998
2023-08-29T12:49:40.224Z,-14.5793711
2023-08-29T12:51:41.335Z,-14.7537206
2023-08-29T12:53:42.395Z,-14.866725100000002
2023-08-29T12:55:43.494Z,-15.021700599999997
2023-08-29T12:57:44.576Z,-15.175062599999999
2023-08-29T12:59:45.678Z,-15.1669898
2023-08-29T13:01:46.747Z,-15.342954599999999
2023-08-29T13:03:47.893Z,-15.496316799999999
2023-08-29T13:05:48.909Z,-15.5754214
2023-08-29T13:07:50.006Z,-15.733630299999998
2023-08-29T13:09:51.087Z,-15.806277399999999
2023-08-29T13:11:52.182Z,-15.8950684
2023-08-29T13:13:53.258Z,-16.0113038
2023-08-29T13:15:54.372Z,-16.2373209
2023-08-29T13:17:55.463Z,-16.3115848
2023-08-29T13:19:56.537Z,-16.4019904
2023-08-29T13:21:57.606Z,-16.4730277
2023-08-29T13:23:58.689Z,-16.5053163
2023-08-29T13:25:59.776Z,-16.4326663
2023-08-29T13:28:00.858Z,-16.416521699999997
2023-08-29T13:30:01.946Z,-16.4811002
2023-08-29T13:32:03.037Z,-16.5279146
2023-08-29T13:34:04.123Z,-16.692583300000003
2023-08-29T13:36:05.193Z,-16.741014599999996
2023-08-29T13:38:06.494Z,-16.8443349
2023-08-29T13:40:07.377Z,-17.0041557
2023-08-29T13:42:08.445Z,-17.2043367
2023-08-29T13:44:09.543Z,-17.3141122
2023-08-29T13:46:10.700Z,-17.520752199999997
2023-08-29T13:48:11.906Z,-17.6321428
2023-08-29T13:50:12.814Z,-17.735462300000002
2023-08-29T13:52:13.883Z,-17.701560399999998
2023-08-29T13:54:14.979Z,-17.779048999999997
2023-08-29T13:56:16.081Z,-17.8985115
2023-08-29T13:58:17.148Z,-18.026047400000003
2023-08-29T14:00:18.217Z,-18.0664058
2023-08-29T14:02:19.352Z,-18.1229085
2023-08-29T14:04:20.388Z,-18.226227799999997
2023-08-29T14:06:21.498Z,-18.2036259
2023-08-29T14:08:22.571Z,-18.221383100000004
2023-08-29T14:10:23.654Z,-18.1987827
2023-08-29T14:12:24.750Z,-18.2601296
2023-08-29T14:14:25.825Z,-18.2230008
2023-08-29T14:16:26.910Z,-18.3134044
2023-08-29T14:18:27.994Z,-18.4570833
2023-08-29T14:20:29.105Z,-18.6249764
2023-08-29T14:22:30.201Z,-18.7912562
2023-08-29T14:24:31.274Z,-18.938161
2023-08-29T14:26:32.347Z,-18.983363500000003
2023-08-29T14:28:33.429Z,-19.091525
2023-08-29T14:30:34.517Z,-19.135114899999998
2023-08-29T14:32:35.602Z,-19.122196799999998
2023-08-29T14:34:36.686Z,-19.223902000000002
2023-08-29T14:36:37.768Z,-19.323993299999998
2023-08-29T14:38:38.852Z,-19.395025999999998
2023-08-29T14:40:39.938Z,-19.403098299999996
2023-08-29T14:42:41.034Z,-19.582295000000002
2023-08-29T14:44:42.105Z,-19.591980099999997
2023-08-29T14:46:43.224Z,-19.7066014
2023-08-29T14:48:44.272Z,-19.779247399999996
2023-08-29T14:50:45.363Z,-19.8244482
2023-08-29T14:52:46.474Z,-19.780860999999994
2023-08-29T14:54:47.538Z,-19.8276784
2023-08-29T14:56:48.628Z,-19.8179922
2023-08-29T14:58:49.712Z,-19.8454385
2023-08-29T15:00:50.787Z,-19.943919599999997
2023-08-29T15:02:51.985Z,-20.032710799999997
2023-08-29T15:04:52.973Z,-20.032711900000002
2023-08-29T15:06:54.051Z,-20.127961500000005
2023-08-29T15:08:55.145Z,-20.1893099
2023-08-29T15:10:56.223Z,-20.276486499999997
2023-08-29T15:12:57.313Z,-20.497657399999998
2023-08-29T15:14:58.391Z,-20.6284254
2023-08-29T15:16:59.492Z,-20.767261400000002
2023-08-29T15:19:00.571Z,-20.818922500000003
2023-08-29T15:21:01.675Z,-20.8011644
2023-08-29T15:23:02.740Z,-20.6881557
2023-08-29T15:25:03.837Z,-20.9593655
2023-08-29T15:27:04.921Z,-21.1530879
2023-08-29T15:29:05.998Z,-21.3839425
2023-08-29T15:31:07.085Z,-21.7552447
2023-08-29T15:33:08.256Z,-21.8892379
2023-08-29T15:35:09.267Z,-21.995787600000003
2023-08-29T15:37:10.339Z,-22.06682
2023-08-29T15:39:11.434Z,-22.1523794
2023-08-29T15:41:12.500Z,-22.3218867
2023-08-29T15:43:13.613Z,-22.6738187
2023-08-29T15:45:14.685Z,-22.8191107
2023-08-29T15:47:15.784Z,-23.0402768
2023-08-29T15:49:16.849Z,-23.3211734
2023-08-29T15:51:17.937Z,-23.3179457
2023-08-29T15:53:19.030Z,-23.487452400000002
2023-08-29T15:55:20.106Z,-23.598840600000003
2023-08-29T15:57:21.191Z,-23.7651209
2023-08-29T15:59:22.277Z,-24.100913900000002
2023-08-29T16:01:23.377Z,-24.3818156
2023-08-29T16:03:24.482Z,-24.5852292
2023-08-29T16:05:25.536Z,-24.8306167
2023-08-29T16:07:26.643Z,-24.849991499999998
2023-08-29T16:09:27.697Z,-24.7757288
2023-08-29T16:11:28.804Z,-24.756354199999997
2023-08-29T16:13:29.872Z,-24.7595836
2023-08-29T16:15:30.975Z,-24.875819399999997
2023-08-29T16:17:32.084Z,-25.1793195
2023-08-29T16:19:33.572Z,-25.392416700000002
2023-08-29T16:21:34.216Z,-25.691075400000006
2023-08-29T16:23:35.354Z,-26.033320300000003
2023-08-29T16:25:36.391Z,-26.175383
2023-08-29T16:27:37.488Z,-26.073678899999997
2023-08-29T16:29:38.564Z,-26.175383400000005
2023-08-29T16:31:39.659Z,-26.267402399999998
2023-08-29T16:33:40.729Z,-26.3077613
2023-08-29T16:35:41.828Z,-26.3755652
2023-08-29T16:37:42.898Z,-26.57736
2023-08-29T16:39:43.992Z,-26.637091500000004
2023-08-29T16:41:45.076Z,-26.69198
2023-08-29T16:43:46.168Z,-26.716195699999997
2023-08-29T16:45:47.253Z,-26.827585
2023-08-29T16:47:48.347Z,-26.9631895
2023-08-29T16:49:49.438Z,-27.042292399999997
2023-08-29T16:51:50.504Z,-27.1746684
2023-08-29T16:53:51.604Z,-27.2618409
2023-08-29T16:55:52.674Z,-27.252155
2023-08-29T16:57:53.775Z,-27.2699119
2023-08-29T16:59:54.861Z,-27.2505411
2023-08-29T17:01:55.943Z,-27.255387299999995
2023-08-29T17:03:57.099Z,-27.266690099999998
2023-08-29T17:05:58.110Z,-27.321577400000002
2023-08-29T17:07:59.208Z,-27.387768299999994
2023-08-29T17:10:00.284Z,-27.6170094
2023-08-29T17:12:01.375Z,-27.7897474
2023-08-29T17:14:02.456Z,-27.928585699999996
2023-08-29T17:16:03.571Z,-28.081955899999997
2023-08-29T17:18:04.660Z,-28.1400759
2023-08-29T17:20:05.715Z,-28.193352000000004
2023-08-29T17:22:06.838Z,-28.288601300000003
2023-08-29T17:24:07.879Z,-28.438738999999998
2023-08-29T17:26:08.967Z,-28.504928499999995
2023-08-29T17:28:10.111Z,-28.516229200000005
2023-08-29T17:30:11.137Z,-28.530758599999995
2023-08-29T17:32:12.211Z,-28.492013599999996
2023-08-29T17:35:13.855Z,-28.440353300000005
2023-08-29T17:37:14.925Z,-28.477483999999997
2023-08-29T17:39:16.032Z,-28.6130919
2023-08-29T17:42:17.647Z,-28.818116700000008
2023-08-29T17:44:18.731Z,-28.9730971
2023-08-29T17:46:19.854Z,-29.099017800000002
2023-08-29T17:48:20.945Z,-29.245926400000002
2023-08-29T17:50:21.984Z,-29.2055669
2023-08-29T17:52:23.081Z,-29.247540800000003
2023-08-29T17:54:24.164Z,-29.323414300000003
2023-08-29T17:56:25.246Z,-29.2701406
2023-08-29T17:58:26.335Z,-29.3121124
2023-08-29T18:00:27.435Z,-29.447719
2023-08-29T18:02:28.564Z,-29.478391199999997
2023-08-29T18:04:29.589Z,-29.520365400000003
2023-08-29T18:06:30.680Z,-29.613999200000002
2023-08-29T18:08:31.773Z,-29.615613500000002
2023-08-29T18:10:32.841Z,-29.6430563
2023-08-29T18:12:33.932Z,-29.6479007
2023-08-29T18:14:35.059Z,-29.707629199999996
2023-08-29T18:16:36.103Z,-29.762516299999998
2023-08-29T18:18:37.200Z,-29.8012588
2023-08-29T18:20:38.283Z,-29.8739053
2023-08-29T18:22:39.376Z,-29.953006999999996
2023-08-29T18:24:40.454Z,-29.988525200000005
2023-08-29T18:26:41.519Z,-29.993368800000002
2023-08-29T18:28:42.631Z,-30.0805447
2023-08-29T18:30:43.713Z,-30.1370499
2023-08-29T18:32:44.838Z,-30.206471599999997
2023-08-29T18:34:45.857Z,-30.329162399999994
2023-08-29T18:36:46.965Z,-30.3259338
2023-08-29T18:38:48.052Z,-30.2968737
2023-08-29T18:40:49.138Z,-30.267814100000002
2023-08-29T18:42:50.206Z,-30.40180399999999
2023-08-29T18:44:51.292Z,-30.400189599999997
2023-08-29T18:46:52.379Z,-30.487370199999997
2023-08-29T18:48:53.481Z,-30.603607
2023-08-29T18:50:54.557Z,-30.7521267
2023-08-29T18:52:55.655Z,-30.787641700000002
2023-08-29T18:54:56.721Z,-30.847372500000006
2023-08-29T18:56:57.818Z,-30.9264725
2023-08-29T18:58:58.908Z,-30.9232443
2023-08-29T19:00:59.988Z,-30.949074000000003
2023-08-29T19:03:01.110Z,-30.923244
2023-08-29T19:05:02.160Z,-30.979747000000003
2023-08-29T19:07:03.292Z,-31.0410927
2023-08-29T19:09:04.413Z,-31.1718544
2023-08-29T19:11:05.415Z,-31.181540600000005
2023-08-29T19:13:06.492Z,-31.162168599999994
2023-08-29T19:15:07.587Z,-31.1024365
2023-08-29T19:17:08.678Z,-31.1008221
2023-08-29T19:19:09.749Z,-31.076606299999998
2023-08-29T19:21:10.848Z,-31.086292500000003
2023-08-29T19:23:11.915Z,-31.110508199999998
2023-08-29T19:25:13.238Z,-31.246115499999995
2023-08-29T19:27:21.541Z,-31.263873700000005
2023-08-29T19:29:15.213Z,-31.2638735
2023-08-29T19:31:16.270Z,-31.278402900000003
2023-08-29T19:33:17.468Z,-31.199298500000005
2023-08-29T19:35:18.439Z,-31.158938999999997
2023-08-29T19:37:19.532Z,-31.212213499999997
2023-08-29T19:39:20.616Z,-31.3106905
2023-08-29T19:41:21.691Z,-31.451141600000007
2023-08-29T19:43:22.780Z,-31.568991099999998
2023-08-29T19:45:23.858Z,-31.667468299999996
2023-08-29T19:47:24.956Z,-31.772403100000002
2023-08-29T19:49:26.033Z,-31.861194
2023-08-29T19:51:27.131Z,-31.9322267
2023-08-29T19:53:28.212Z,-31.890252799999995
2023-08-29T19:55:29.312Z,-31.877337699999998
2023-08-29T19:57:30.394Z,-31.8579651
2023-08-29T20:00:32.027Z,-31.840206900000005
2023-08-29T20:02:33.113Z,-31.8837952
2023-08-29T20:04:34.334Z,-32.0242463